Time;durP1;ratioP1;P1;durP2;ratioP2;P2;SDS_P1;SDS_P2;PMS_P1;PMS_P2;Temp;Humidity;BMP_temperature;BMP_pressure;BME280_temperature;BME280_humidity;BME280_pressure;Samples;Min_cycle;Max_cycle;Signal;HPM_P1;HPM_P2
2022/01/19 00:01:13;;;;;;;7.95;5.90;;;;;;;;;;5045453;28;20199;-75
2022/01/19 00:03:40;;;;;;;8.80;5.88;;;;;;;;;;5048236;28;20198;-75
2022/01/19 00:06:07;;;;;;;8.93;6.05;;;;;;;;;;5038904;28;20559;-76
2022/01/19 00:08:34;;;;;;;10.45;6.70;;;;;;;;;;5046837;28;20193;-76
2022/01/19 00:11:01;;;;;;;9.27;6.15;;;;;;;;;;5041767;28;20672;-75
2022/01/19 00:13:29;;;;;;;8.10;5.50;;;;;;;;;;5047555;28;20678;-75
2022/01/19 00:15:56;;;;;;;7.90;6.97;;;;;;;;;;5037303;28;20701;-76
2022/01/19 00:18:24;;;;;;;9.57;5.90;;;;;;;;;;5045218;28;20597;-75
2022/01/19 00:20:52;;;;;;;8.93;6.40;;;;;;;;;;5045766;28;20234;-75
2022/01/19 00:23:20;;;;;;;9.57;5.60;;;;;;;;;;5046995;28;20350;-76
2022/01/19 00:25:47;;;;;;;8.63;6.10;;;;;;;;;;5050545;28;20191;-75
2022/01/19 00:28:15;;;;;;;6.90;5.50;;;;;;;;;;5049741;28;20199;-75
2022/01/19 00:30:44;;;;;;;8.43;6.35;;;;;;;;;;5042354;28;20566;-75
2022/01/19 00:33:12;;;;;;;10.23;6.20;;;;;;;;;;5046658;28;20195;-75
2022/01/19 00:35:40;;;;;;;8.10;5.78;;;;;;;;;;5044558;28;20743;-76
2022/01/19 00:38:08;;;;;;;7.85;5.40;;;;;;;;;;5048382;28;20211;-75
2022/01/19 00:40:35;;;;;;;6.97;5.50;;;;;;;;;;5045395;28;20805;-75
2022/01/19 00:43:02;;;;;;;11.75;6.90;;;;;;;;;;5048378;28;20198;-76
2022/01/19 00:45:29;;;;;;;9.38;6.75;;;;;;;;;;5043052;28;20219;-75
2022/01/19 00:47:57;;;;;;;9.82;6.35;;;;;;;;;;5049411;28;20643;-76
2022/01/19 00:50:26;;;;;;;9.77;6.18;;;;;;;;;;5045909;28;20543;-75
2022/01/19 00:52:53;;;;;;;7.70;6.80;;;;;;;;;;5045730;28;20597;-76
2022/01/19 00:55:21;;;;;;;9.70;6.95;;;;;;;;;;5040174;28;20605;-76
2022/01/19 00:57:48;;;;;;;9.07;6.15;;;;;;;;;;5038796;28;20203;-76
2022/01/19 01:00:18;;;;;;;10.13;6.30;;;;;;;;;;5047640;28;20666;-76
2022/01/19 01:02:45;;;;;;;10.50;7.45;;;;;;;;;;5031089;28;20214;-76
2022/01/19 01:05:13;;;;;;;7.25;6.13;;;;;;;;;;5043357;28;20199;-76
2022/01/19 01:07:40;;;;;;;9.05;7.05;;;;;;;;;;5045228;28;20210;-76
2022/01/19 01:10:08;;;;;;;8.95;8.05;;;;;;;;;;5044953;28;20194;-76
2022/01/19 01:12:45;;;;;;;7.15;6.13;;;;;;;;;;5047012;28;20554;-76
2022/01/19 01:15:28;;;;;;;10.25;6.70;;;;;;;;;;5041073;28;20614;-76
2022/01/19 01:20:41;;;;;;;8.05;5.60;;;;;;;;;;5042252;28;20197;-76
2022/01/19 01:23:10;;;;;;;8.38;6.70;;;;;;;;;;5045352;28;20207;-77
2022/01/19 01:25:37;;;;;;;8.88;6.15;;;;;;;;;;5031516;28;20199;-76
2022/01/19 01:28:04;;;;;;;8.95;6.28;;;;;;;;;;5049982;28;20216;-76
2022/01/19 01:30:31;;;;;;;7.97;7.18;;;;;;;;;;5045982;28;20578;-77
2022/01/19 01:32:58;;;;;;;9.55;6.20;;;;;;;;;;5053288;28;20202;-76
2022/01/19 01:35:25;;;;;;;7.40;5.93;;;;;;;;;;5049745;28;20202;-75
2022/01/19 01:37:54;;;;;;;12.20;5.80;;;;;;;;;;5051817;28;20203;-76
2022/01/19 01:40:22;;;;;;;9.07;6.45;;;;;;;;;;5052087;28;20215;-76
2022/01/19 01:42:49;;;;;;;7.70;6.25;;;;;;;;;;5048334;28;20642;-76
2022/01/19 01:45:18;;;;;;;12.27;7.10;;;;;;;;;;5048202;28;20215;-77
2022/01/19 01:47:50;;;;;;;8.23;6.15;;;;;;;;;;5047338;28;20200;-76
2022/01/19 01:56:01;;;;;;;7.35;6.18;;;;;;;;;;5044378;28;20329;-76
2022/01/19 01:58:28;;;;;;;12.68;6.57;;;;;;;;;;5051789;28;20226;-76
2022/01/19 02:00:55;;;;;;;11.10;7.22;;;;;;;;;;5052710;28;20202;-76
2022/01/19 02:03:23;;;;;;;12.60;7.43;;;;;;;;;;5053791;28;20207;-76
2022/01/19 02:08:43;;;;;;;8.07;5.63;;;;;;;;;;5050801;28;20585;-76
2022/01/19 02:22:35;;;;;;;9.65;6.90;;;;;;;;;;5042366;28;20244;-76
2022/01/19 02:25:04;;;;;;;9.55;6.10;;;;;;;;;;5052094;28;20201;-75
2022/01/19 02:31:05;;;;;;;9.85;5.93;;;;;;;;;;5045490;28;20561;-76
2022/01/19 02:41:43;;;;;;;9.73;6.95;;;;;;;;;;5046481;28;20206;-75
2022/01/19 02:44:13;;;;;;;9.18;6.30;;;;;;;;;;5042044;28;20257;-76
2022/01/19 02:49:08;;;;;;;8.45;7.13;;;;;;;;;;5037759;28;20250;-76
2022/01/19 02:49:29;;;;;;;10.35;6.82;;;;;;;;;;5040391;28;20183;-76
2022/01/19 02:51:57;;;;;;;9.98;5.95;;;;;;;;;;5045839;28;20199;-76
2022/01/19 02:54:27;;;;;;;8.95;5.88;;;;;;;;;;5050585;28;20202;-76
2022/01/19 02:56:58;;;;;;;11.68;6.63;;;;;;;;;;5048554;28;20203;-76
2022/01/19 02:59:32;;;;;;;8.90;6.10;;;;;;;;;;5040941;28;20306;-76
2022/01/19 03:10:29;;;;;;;6.65;5.68;;;;;;;;;;5047281;28;20205;-76
2022/01/19 03:13:02;;;;;;;11.57;7.45;;;;;;;;;;5047153;28;20203;-77
2022/01/19 03:15:29;;;;;;;14.38;6.63;;;;;;;;;;5043260;28;20207;-73
2022/01/19 03:17:59;;;;;;;10.80;6.90;;;;;;;;;;5051980;28;20646;-74
2022/01/19 03:20:26;;;;;;;11.50;6.95;;;;;;;;;;5050960;28;20318;-73
2022/01/19 03:23:02;;;;;;;11.70;6.40;;;;;;;;;;5048217;28;20202;-76
2022/01/19 03:25:29;;;;;;;7.20;6.00;;;;;;;;;;5039583;28;20225;-75
2022/01/19 03:27:57;;;;;;;7.07;5.45;;;;;;;;;;5050550;28;20217;-75
2022/01/19 03:30:24;;;;;;;11.02;5.28;;;;;;;;;;5038209;28;20192;-75
2022/01/19 03:32:51;;;;;;;9.05;6.40;;;;;;;;;;5046803;28;20196;-74
2022/01/19 03:35:18;;;;;;;6.05;5.45;;;;;;;;;;5036894;28;20581;-73
2022/01/19 03:37:45;;;;;;;12.75;5.93;;;;;;;;;;5046363;28;20205;-72
2022/01/19 03:40:15;;;;;;;6.75;5.88;;;;;;;;;;5047102;28;20744;-74
2022/01/19 03:42:42;;;;;;;6.18;4.97;;;;;;;;;;5047797;28;20673;-74
2022/01/19 03:45:10;;;;;;;10.32;6.10;;;;;;;;;;5049169;28;20221;-74
2022/01/19 03:47:41;;;;;;;5.95;5.32;;;;;;;;;;5034697;28;20681;-74
2022/01/19 03:50:09;;;;;;;7.85;5.47;;;;;;;;;;5032065;28;20286;-73
2022/01/19 03:52:36;;;;;;;7.10;5.10;;;;;;;;;;5040029;28;20257;-73
2022/01/19 03:55:03;;;;;;;7.68;5.32;;;;;;;;;;5047314;28;20543;-73
2022/01/19 03:57:32;;;;;;;8.27;5.30;;;;;;;;;;5047753;28;20202;-73
2022/01/19 03:59:59;;;;;;;6.07;5.47;;;;;;;;;;5038939;28;20214;-73
2022/01/19 04:02:27;;;;;;;8.25;5.63;;;;;;;;;;5037527;28;20188;-73
2022/01/19 04:04:59;;;;;;;6.15;5.55;;;;;;;;;;5050901;28;20191;-73
2022/01/19 04:07:26;;;;;;;16.60;5.22;;;;;;;;;;5041806;28;20282;-73
2022/01/19 04:09:53;;;;;;;10.07;4.97;;;;;;;;;;5048506;28;20201;-73
2022/01/19 04:12:40;;;;;;;8.93;5.30;;;;;;;;;;5047243;28;20249;-74
2022/01/19 04:15:09;;;;;;;9.10;5.80;;;;;;;;;;5045569;28;20195;-72
2022/01/19 04:17:40;;;;;;;11.10;5.78;;;;;;;;;;5035391;28;20245;-73
2022/01/19 04:20:07;;;;;;;7.63;5.53;;;;;;;;;;5049366;28;20297;-73
2022/01/19 04:22:36;;;;;;;12.73;5.97;;;;;;;;;;5041702;28;20210;-74
2022/01/19 04:25:03;;;;;;;7.13;5.70;;;;;;;;;;5048038;28;20285;-73
2022/01/19 04:27:33;;;;;;;11.82;5.53;;;;;;;;;;5037033;28;20211;-73
2022/01/19 04:30:05;;;;;;;7.15;6.00;;;;;;;;;;5041361;28;20214;-73
2022/01/19 04:32:40;;;;;;;9.52;5.90;;;;;;;;;;5040453;28;20245;-73
2022/01/19 04:35:10;;;;;;;8.52;4.68;;;;;;;;;;5036410;28;20221;-73
2022/01/19 04:37:53;;;;;;;11.60;6.18;;;;;;;;;;5037366;28;20199;-74
2022/01/19 04:46:07;;;;;;;6.65;4.68;;;;;;;;;;5049285;28;20763;-73
2022/01/19 04:49:03;;;;;;;7.15;5.30;;;;;;;;;;5051061;28;20187;-74
2022/01/19 05:02:53;;;;;;;5.95;4.88;;;;;;;;;;5033736;28;20198;-75
2022/01/19 05:05:26;;;;;;;7.20;5.13;;;;;;;;;;5050195;28;20252;-74
2022/01/19 05:07:59;;;;;;;5.85;4.22;;;;;;;;;;5047793;28;20199;-73
2022/01/19 05:13:26;;;;;;;6.00;5.35;;;;;;;;;;5046921;28;20202;-73
2022/01/19 05:15:54;;;;;;;6.10;5.50;;;;;;;;;;5047097;28;20206;-73
2022/01/19 05:18:21;;;;;;;4.47;4.05;;;;;;;;;;5051129;28;20627;-73
2022/01/19 05:20:50;;;;;;;5.10;4.05;;;;;;;;;;5042497;28;20219;-74
2022/01/19 05:23:17;;;;;;;5.55;4.95;;;;;;;;;;5047558;28;20198;-73
2022/01/19 05:25:44;;;;;;;6.07;4.63;;;;;;;;;;5038338;28;20282;-72
2022/01/19 05:28:11;;;;;;;5.60;5.10;;;;;;;;;;5050836;28;20298;-73
2022/01/19 05:30:38;;;;;;;5.22;4.72;;;;;;;;;;5045653;28;20199;-73
2022/01/19 05:33:05;;;;;;;4.45;4.03;;;;;;;;;;5050617;28;20642;-74
2022/01/19 05:35:32;;;;;;;6.53;4.80;;;;;;;;;;5046693;28;20209;-73
2022/01/19 05:38:01;;;;;;;4.28;3.42;;;;;;;;;;5040164;28;20195;-73
2022/01/19 05:40:28;;;;;;;5.93;4.68;;;;;;;;;;5036268;28;20275;-74
2022/01/19 05:42:55;;;;;;;5.30;3.95;;;;;;;;;;5051046;28;20196;-73
2022/01/19 05:45:22;;;;;;;4.60;4.20;;;;;;;;;;5045206;28;20599;-73
2022/01/19 05:47:49;;;;;;;4.93;4.43;;;;;;;;;;5053847;28;20256;-73
2022/01/19 05:50:16;;;;;;;6.68;4.55;;;;;;;;;;5040979;28;20196;-74
2022/01/19 05:52:43;;;;;;;7.32;4.20;;;;;;;;;;5048529;28;20199;-74
2022/01/19 05:55:12;;;;;;;5.00;4.47;;;;;;;;;;5051604;28;20248;-74
2022/01/19 05:57:39;;;;;;;4.43;3.95;;;;;;;;;;5051735;28;20191;-73
2022/01/19 06:00:07;;;;;;;3.60;3.30;;;;;;;;;;5041275;28;20261;-74
2022/01/19 06:02:34;;;;;;;4.25;3.40;;;;;;;;;;5041301;28;20199;-73
2022/01/19 06:05:01;;;;;;;4.25;3.80;;;;;;;;;;5048153;28;20249;-74
2022/01/19 06:07:30;;;;;;;5.80;3.90;;;;;;;;;;5040616;28;20196;-73
2022/01/19 06:10:04;;;;;;;5.13;4.72;;;;;;;;;;5048706;28;20225;-74
2022/01/19 06:12:33;;;;;;;4.65;4.25;;;;;;;;;;5046603;28;20232;-73
2022/01/19 06:15:01;;;;;;;4.88;4.03;;;;;;;;;;5046793;28;20282;-74
2022/01/19 06:17:28;;;;;;;5.18;3.45;;;;;;;;;;5052308;28;20341;-74
2022/01/19 06:19:55;;;;;;;3.70;3.40;;;;;;;;;;5052581;28;20226;-74
2022/01/19 06:22:22;;;;;;;4.70;3.80;;;;;;;;;;5042097;28;20211;-73
2022/01/19 06:24:49;;;;;;;4.00;3.70;;;;;;;;;;5052407;28;20607;-73
2022/01/19 06:27:17;;;;;;;4.10;3.78;;;;;;;;;;5050012;28;20199;-73
2022/01/19 06:29:45;;;;;;;4.78;3.40;;;;;;;;;;5045226;28;20598;-74
2022/01/19 06:32:12;;;;;;;5.88;4.13;;;;;;;;;;5049095;28;20248;-73
2022/01/19 06:34:39;;;;;;;4.47;4.18;;;;;;;;;;5052804;28;20252;-72
2022/01/19 06:37:06;;;;;;;4.78;3.97;;;;;;;;;;5050459;28;20199;-73
2022/01/19 06:39:33;;;;;;;4.50;4.10;;;;;;;;;;5046492;28;20199;-72
2022/01/19 06:42:00;;;;;;;3.38;3.08;;;;;;;;;;5045373;28;20720;-73
2022/01/19 06:44:27;;;;;;;4.28;3.97;;;;;;;;;;5048330;28;20207;-72
2022/01/19 06:46:56;;;;;;;4.82;4.07;;;;;;;;;;5050149;28;20199;-73
2022/01/19 06:49:23;;;;;;;4.65;4.28;;;;;;;;;;5040705;28;20203;-73
2022/01/19 06:51:50;;;;;;;6.28;4.50;;;;;;;;;;5040431;28;20222;-72
2022/01/19 06:54:17;;;;;;;4.07;3.67;;;;;;;;;;5049946;28;20335;-73
2022/01/19 06:56:44;;;;;;;4.47;4.00;;;;;;;;;;5041213;28;20198;-72
2022/01/19 06:59:11;;;;;;;4.80;4.40;;;;;;;;;;5039419;28;20199;-73
2022/01/19 07:01:38;;;;;;;4.32;3.92;;;;;;;;;;5045810;28;20210;-72
2022/01/19 07:04:06;;;;;;;4.45;4.00;;;;;;;;;;5041544;28;20256;-73
2022/01/19 07:06:34;;;;;;;5.30;4.68;;;;;;;;;;5034781;28;20204;-72
2022/01/19 07:09:01;;;;;;;4.63;4.20;;;;;;;;;;5040859;28;20198;-72
2022/01/19 07:11:28;;;;;;;4.88;4.47;;;;;;;;;;5045378;28;20729;-73
2022/01/19 07:13:57;;;;;;;8.63;5.15;;;;;;;;;;5038096;28;20214;-73
2022/01/19 07:16:24;;;;;;;5.82;4.45;;;;;;;;;;5043776;28;20269;-72
2022/01/19 07:18:51;;;;;;;4.13;3.80;;;;;;;;;;5043050;28;20542;-74
2022/01/19 07:21:19;;;;;;;4.68;4.28;;;;;;;;;;5033922;28;20211;-72
2022/01/19 07:23:46;;;;;;;4.13;3.83;;;;;;;;;;5042153;28;20203;-74
2022/01/19 07:26:14;;;;;;;5.38;4.28;;;;;;;;;;5042882;28;20697;-74
2022/01/19 07:28:41;;;;;;;4.82;4.30;;;;;;;;;;5042928;28;20207;-74
2022/01/19 07:31:08;;;;;;;4.00;3.55;;;;;;;;;;5045347;28;20203;-73
2022/01/19 07:33:35;;;;;;;5.22;4.78;;;;;;;;;;5045301;28;20199;-74
2022/01/19 07:36:02;;;;;;;3.97;3.58;;;;;;;;;;5035675;28;20207;-73
2022/01/19 07:38:30;;;;;;;4.15;3.85;;;;;;;;;;5037479;28;20247;-74
2022/01/19 07:40:57;;;;;;;3.92;3.50;;;;;;;;;;5035842;28;20613;-74
2022/01/19 07:43:24;;;;;;;3.50;3.20;;;;;;;;;;5036825;28;20207;-74
2022/01/19 07:45:51;;;;;;;3.80;3.50;;;;;;;;;;5045039;28;20223;-74
2022/01/19 07:48:18;;;;;;;4.15;3.85;;;;;;;;;;5040424;28;20203;-74
2022/01/19 07:50:45;;;;;;;4.43;4.03;;;;;;;;;;5038193;28;20203;-74
2022/01/19 07:53:12;;;;;;;4.47;3.70;;;;;;;;;;5040345;28;20199;-74
2022/01/19 07:55:42;;;;;;;4.10;3.80;;;;;;;;;;5046052;28;20608;-73
2022/01/19 07:58:09;;;;;;;4.55;3.63;;;;;;;;;;5043833;28;20203;-73
2022/01/19 08:00:38;;;;;;;8.20;4.53;;;;;;;;;;5040953;28;20689;-74
2022/01/19 08:03:05;;;;;;;11.07;4.45;;;;;;;;;;5039421;28;20202;-74
2022/01/19 08:05:32;;;;;;;3.97;3.67;;;;;;;;;;5043099;28;20638;-74
2022/01/19 08:07:59;;;;;;;3.83;3.58;;;;;;;;;;5045159;28;20206;-74
2022/01/19 08:10:29;;;;;;;4.18;3.83;;;;;;;;;;5044969;28;20330;-73
2022/01/19 08:13:01;;;;;;;2.95;2.75;;;;;;;;;;5044642;28;20205;-73
2022/01/19 08:15:28;;;;;;;3.78;3.47;;;;;;;;;;5041248;28;20719;-73
2022/01/19 08:17:55;;;;;;;3.22;3.03;;;;;;;;;;5049107;28;20190;-72
2022/01/19 08:20:22;;;;;;;3.50;3.20;;;;;;;;;;5038489;28;20231;-73
2022/01/19 08:22:49;;;;;;;4.60;4.20;;;;;;;;;;5043776;28;20195;-73
2022/01/19 08:25:17;;;;;;;3.85;3.13;;;;;;;;;;5039254;28;20249;-73
2022/01/19 08:27:44;;;;;;;3.28;2.97;;;;;;;;;;5036609;28;20609;-74
2022/01/19 08:30:13;;;;;;;4.05;3.67;;;;;;;;;;5045460;28;20685;-74
2022/01/19 08:32:41;;;;;;;5.07;2.97;;;;;;;;;;5039676;28;20196;-73
2022/01/19 08:35:08;;;;;;;3.40;3.10;;;;;;;;;;5031131;28;20203;-73
2022/01/19 08:37:35;;;;;;;3.30;3.08;;;;;;;;;;5045078;28;20264;-72
2022/01/19 08:40:03;;;;;;;3.38;3.08;;;;;;;;;;5043782;28;20651;-73
2022/01/19 08:42:30;;;;;;;3.42;3.13;;;;;;;;;;5042037;28;20229;-72
2022/01/19 08:44:58;;;;;;;3.13;2.92;;;;;;;;;;5046596;28;20214;-72
2022/01/19 08:47:26;;;;;;;3.35;3.05;;;;;;;;;;5042176;28;20609;-72
2022/01/19 08:49:53;;;;;;;3.40;3.20;;;;;;;;;;5031680;28;20655;-72
2022/01/19 08:52:20;;;;;;;3.60;3.40;;;;;;;;;;5049537;28;20198;-73
2022/01/19 08:54:47;;;;;;;3.60;3.30;;;;;;;;;;5044592;28;20730;-73
2022/01/19 08:57:15;;;;;;;5.30;3.13;;;;;;;;;;5036511;28;20245;-73
2022/01/19 08:59:42;;;;;;;4.65;3.90;;;;;;;;;;5042182;28;20212;-72
2022/01/19 09:02:09;;;;;;;4.22;3.83;;;;;;;;;;5043130;28;20690;-73
2022/01/19 09:04:37;;;;;;;3.53;3.22;;;;;;;;;;5050636;28;20191;-73
2022/01/19 09:07:04;;;;;;;3.80;3.50;;;;;;;;;;5048671;28;20264;-72
2022/01/19 09:09:31;;;;;;;3.85;3.45;;;;;;;;;;5036975;28;20706;-73
2022/01/19 09:11:58;;;;;;;4.38;3.97;;;;;;;;;;5040531;28;20198;-73
2022/01/19 09:14:25;;;;;;;4.45;3.75;;;;;;;;;;5040313;28;20203;-72
2022/01/19 09:16:52;;;;;;;3.90;3.60;;;;;;;;;;5035792;28;20459;-72
2022/01/19 09:19:20;;;;;;;3.65;3.45;;;;;;;;;;5029377;28;20662;-72
2022/01/19 09:21:49;;;;;;;4.20;3.75;;;;;;;;;;5036067;28;20230;-72
2022/01/19 09:24:16;;;;;;;4.10;3.70;;;;;;;;;;5037414;28;20636;-72
2022/01/19 09:26:43;;;;;;;4.57;4.18;;;;;;;;;;5044381;28;20206;-72
2022/01/19 09:29:10;;;;;;;4.50;4.10;;;;;;;;;;5036538;28;20207;-72
2022/01/19 09:31:39;;;;;;;4.93;4.55;;;;;;;;;;5042848;28;20249;-73
2022/01/19 09:34:09;;;;;;;5.20;4.78;;;;;;;;;;5039683;28;20616;-71
2022/01/19 09:36:44;;;;;;;5.22;4.80;;;;;;;;;;5038715;28;20202;-74
2022/01/19 09:39:13;;;;;;;4.18;3.78;;;;;;;;;;5040386;28;20206;-72
2022/01/19 09:41:41;;;;;;;6.25;4.25;;;;;;;;;;5041879;28;20218;-72
2022/01/19 09:44:08;;;;;;;5.03;4.32;;;;;;;;;;5043355;28;20309;-73
2022/01/19 09:46:35;;;;;;;4.90;4.50;;;;;;;;;;5046949;28;20712;-73
2022/01/19 09:49:03;;;;;;;6.18;5.55;;;;;;;;;;5044900;28;20206;-72
2022/01/19 09:51:30;;;;;;;5.35;4.85;;;;;;;;;;5046373;28;20651;-72
2022/01/19 09:53:57;;;;;;;7.35;5.95;;;;;;;;;;5043519;28;20604;-72
2022/01/19 09:56:26;;;;;;;5.63;5.07;;;;;;;;;;5041164;28;20203;-73
2022/01/19 09:58:53;;;;;;;6.10;5.40;;;;;;;;;;5042533;28;20199;-74
2022/01/19 10:01:21;;;;;;;8.88;6.60;;;;;;;;;;5045819;28;20265;-73
2022/01/19 10:03:48;;;;;;;7.72;7.03;;;;;;;;;;5041532;28;20682;-72
2022/01/19 10:06:16;;;;;;;6.82;6.05;;;;;;;;;;5038345;28;20221;-72
2022/01/19 10:08:44;;;;;;;8.63;7.72;;;;;;;;;;5049713;28;20577;-72
2022/01/19 10:11:15;;;;;;;7.70;6.57;;;;;;;;;;5034122;28;20203;-72
2022/01/19 10:19:17;;;;;;;7.78;6.97;;;;;;;;;;5041924;28;20237;-73
2022/01/19 10:21:58;;;;;;;8.77;7.95;;;;;;;;;;5038638;28;20228;-73
2022/01/19 10:24:39;;;;;;;7.85;7.25;;;;;;;;;;5045651;28;20616;-72
2022/01/19 10:27:33;;;;;;;8.93;7.80;;;;;;;;;;5048548;28;20213;-72
2022/01/19 10:30:16;;;;;;;8.45;7.32;;;;;;;;;;4996351;28;20731;-72
2022/01/19 10:32:43;;;;;;;9.43;8.43;;;;;;;;;;5045877;28;20203;-72
2022/01/19 10:35:14;;;;;;;7.60;6.90;;;;;;;;;;5049477;28;20195;-73
2022/01/19 10:37:41;;;;;;;8.45;7.57;;;;;;;;;;5041133;28;20252;-72
2022/01/19 10:40:14;;;;;;;7.95;7.20;;;;;;;;;;5038046;28;20198;-72
2022/01/19 10:42:41;;;;;;;10.32;8.15;;;;;;;;;;5047518;28;20222;-72
2022/01/19 10:45:09;;;;;;;10.25;8.80;;;;;;;;;;5047299;28;20713;-72
2022/01/19 10:47:42;;;;;;;9.48;7.03;;;;;;;;;;5042222;28;20196;-72
2022/01/19 10:50:10;;;;;;;9.02;8.13;;;;;;;;;;5029812;28;20226;-72
2022/01/19 10:52:39;;;;;;;14.18;9.10;;;;;;;;;;5038517;28;20202;-73
2022/01/19 10:55:08;;;;;;;9.10;7.13;;;;;;;;;;5043301;28;20198;-73
2022/01/19 10:57:36;;;;;;;10.60;9.15;;;;;;;;;;5049665;28;20317;-74
2022/01/19 11:00:20;;;;;;;9.07;8.18;;;;;;;;;;5035890;28;20225;-72
2022/01/19 11:02:49;;;;;;;11.20;9.80;;;;;;;;;;5039974;28;20759;-73
2022/01/19 11:05:16;;;;;;;13.38;9.00;;;;;;;;;;5048808;28;20199;-74
2022/01/19 11:07:44;;;;;;;9.38;7.53;;;;;;;;;;5044084;28;20207;-72
2022/01/19 11:10:17;;;;;;;10.30;8.70;;;;;;;;;;5045729;28;20195;-72
2022/01/19 11:12:48;;;;;;;7.88;7.05;;;;;;;;;;5046587;28;20205;-72
2022/01/19 11:15:17;;;;;;;10.27;7.95;;;;;;;;;;5043904;28;20203;-73
2022/01/19 11:17:45;;;;;;;9.80;8.48;;;;;;;;;;5039668;28;20261;-72
2022/01/19 11:20:14;;;;;;;11.75;8.80;;;;;;;;;;5045755;28;20690;-72
2022/01/19 11:22:51;;;;;;;8.13;7.25;;;;;;;;;;5030024;28;20215;-71
2022/01/19 11:25:23;;;;;;;10.30;8.43;;;;;;;;;;5045248;28;20293;-72
2022/01/19 11:27:50;;;;;;;10.02;8.07;;;;;;;;;;5048759;28;20203;-72
2022/01/19 11:30:20;;;;;;;9.90;8.07;;;;;;;;;;5037363;28;20577;-71
2022/01/19 11:33:07;;;;;;;9.77;8.77;;;;;;;;;;5047380;28;20320;-73
2022/01/19 11:35:36;;;;;;;9.00;8.10;;;;;;;;;;5043127;28;20265;-72
2022/01/19 11:38:03;;;;;;;10.75;8.98;;;;;;;;;;5037854;28;20203;-73
2022/01/19 11:40:35;;;;;;;12.68;9.57;;;;;;;;;;5047993;28;20198;-72
2022/01/19 11:43:17;;;;;;;10.85;9.20;;;;;;;;;;5031187;28;20728;-72
2022/01/19 11:45:44;;;;;;;11.20;8.55;;;;;;;;;;5041825;28;20743;-73
2022/01/19 11:48:14;;;;;;;12.50;9.00;;;;;;;;;;5047614;28;20205;-73
2022/01/19 11:50:43;;;;;;;9.82;8.82;;;;;;;;;;5046240;28;20559;-73
2022/01/19 11:53:12;;;;;;;10.10;8.93;;;;;;;;;;5047319;28;20209;-72
2022/01/19 11:55:40;;;;;;;10.50;9.05;;;;;;;;;;5040730;28;20294;-72
2022/01/19 11:58:14;;;;;;;10.77;9.65;;;;;;;;;;5048418;28;20206;-72
2022/01/19 12:00:42;;;;;;;10.15;8.77;;;;;;;;;;5042165;28;20202;-74
2022/01/19 12:03:23;;;;;;;9.00;7.28;;;;;;;;;;5047257;28;20614;-72
2022/01/19 12:05:53;;;;;;;9.82;8.02;;;;;;;;;;5043783;28;20210;-72
2022/01/19 12:08:30;;;;;;;12.02;9.13;;;;;;;;;;5035117;28;20201;-72
2022/01/19 12:10:59;;;;;;;9.88;8.88;;;;;;;;;;5036621;28;20201;-73
2022/01/19 12:13:41;;;;;;;9.52;8.57;;;;;;;;;;5046191;28;20191;-72
2022/01/19 12:16:13;;;;;;;10.45;8.65;;;;;;;;;;5034374;28;20627;-73
2022/01/19 12:18:49;;;;;;;10.52;8.35;;;;;;;;;;5037156;28;20199;-72
2022/01/19 12:21:25;;;;;;;10.38;8.52;;;;;;;;;;5038424;28;20201;-73
2022/01/19 12:23:52;;;;;;;9.77;8.77;;;;;;;;;;5036113;28;20199;-72
2022/01/19 12:26:19;;;;;;;10.80;8.52;;;;;;;;;;5037479;28;20211;-72
2022/01/19 12:28:48;;;;;;;11.05;9.52;;;;;;;;;;5029600;28;20658;-72
2022/01/19 12:31:32;;;;;;;9.95;8.70;;;;;;;;;;5036780;28;20203;-72
2022/01/19 12:34:19;;;;;;;9.10;8.02;;;;;;;;;;5033105;28;20209;-73
2022/01/19 12:36:48;;;;;;;12.50;9.50;;;;;;;;;;5036422;28;20213;-73
2022/01/19 12:39:35;;;;;;;8.90;7.88;;;;;;;;;;5040361;28;20688;-72
2022/01/19 12:42:03;;;;;;;11.98;8.73;;;;;;;;;;5036257;28;20219;-73
2022/01/19 12:44:40;;;;;;;10.95;9.43;;;;;;;;;;5046540;28;20206;-73
2022/01/19 12:47:30;;;;;;;10.48;9.30;;;;;;;;;;5040246;28;20565;-77
2022/01/19 12:49:58;;;;;;;11.63;9.30;;;;;;;;;;5035032;28;20221;-75
2022/01/19 12:52:28;;;;;;;8.35;7.30;;;;;;;;;;5037716;28;20646;-79
2022/01/19 12:54:56;;;;;;;11.40;9.40;;;;;;;;;;5044752;28;20214;-75
2022/01/19 12:57:23;;;;;;;11.40;9.15;;;;;;;;;;5043035;28;20980;-76
2022/01/19 12:59:51;;;;;;;9.65;8.35;;;;;;;;;;5041738;28;20203;-77
2022/01/19 13:02:20;;;;;;;9.13;7.88;;;;;;;;;;5039835;28;20241;-77
2022/01/19 13:04:48;;;;;;;10.90;9.80;;;;;;;;;;5043333;28;20208;-76
2022/01/19 13:07:18;;;;;;;12.23;9.07;;;;;;;;;;5041644;28;20222;-76
2022/01/19 13:10:18;;;;;;;10.95;8.30;;;;;;;;;;5045409;28;20203;-75
2022/01/19 13:12:50;;;;;;;11.55;9.32;;;;;;;;;;5046238;28;20563;-75
2022/01/19 13:15:18;;;;;;;11.25;10.05;;;;;;;;;;5046592;28;20279;-76
2022/01/19 13:17:46;;;;;;;11.07;8.90;;;;;;;;;;5050378;28;20575;-75
2022/01/19 13:20:15;;;;;;;9.65;8.65;;;;;;;;;;5041361;28;20210;-75
2022/01/19 13:22:47;;;;;;;9.90;8.85;;;;;;;;;;5038975;28;20219;-76
2022/01/19 13:25:22;;;;;;;12.48;9.77;;;;;;;;;;5045786;28;20207;-75
2022/01/19 13:27:50;;;;;;;10.02;8.40;;;;;;;;;;5047440;28;20211;-75
2022/01/19 13:30:17;;;;;;;12.48;9.88;;;;;;;;;;5050965;28;20202;-76
2022/01/19 13:32:44;;;;;;;10.27;9.23;;;;;;;;;;5044501;28;20203;-76
2022/01/19 13:35:12;;;;;;;11.48;9.70;;;;;;;;;;5051223;28;20650;-74
2022/01/19 13:37:41;;;;;;;13.63;11.23;;;;;;;;;;5053080;28;20202;-75
2022/01/19 13:40:09;;;;;;;10.63;8.25;;;;;;;;;;5034697;28;20731;-75
2022/01/19 13:42:41;;;;;;;9.82;8.82;;;;;;;;;;5037797;28;20222;-75
2022/01/19 13:45:13;;;;;;;12.07;9.93;;;;;;;;;;5046366;28;20502;-75
2022/01/19 13:47:52;;;;;;;12.48;10.80;;;;;;;;;;5045327;28;20194;-74
2022/01/19 13:50:20;;;;;;;10.57;8.90;;;;;;;;;;5043804;28;20278;-75
2022/01/19 13:52:47;;;;;;;12.88;9.55;;;;;;;;;;5039978;28;20581;-76
2022/01/19 13:55:18;;;;;;;11.35;9.88;;;;;;;;;;5046317;28;20203;-73
2022/01/19 13:57:46;;;;;;;13.00;10.10;;;;;;;;;;5051246;28;20258;-74
2022/01/19 14:00:16;;;;;;;12.18;10.93;;;;;;;;;;5037402;28;20203;-73
2022/01/19 14:02:56;;;;;;;11.50;9.63;;;;;;;;;;5052227;28;20242;-77
2022/01/19 14:05:35;;;;;;;12.15;10.48;;;;;;;;;;5049586;28;20676;-75
2022/01/19 14:08:02;;;;;;;11.98;9.63;;;;;;;;;;5050027;28;20194;-73
2022/01/19 14:10:39;;;;;;;13.27;11.93;;;;;;;;;;5046560;28;20256;-74
2022/01/19 14:13:21;;;;;;;13.30;10.15;;;;;;;;;;5048104;28;20214;-74
2022/01/19 14:15:49;;;;;;;12.75;10.50;;;;;;;;;;5049659;28;20264;-74
2022/01/19 14:18:16;;;;;;;12.35;10.60;;;;;;;;;;5046977;28;20192;-73
2022/01/19 14:20:43;;;;;;;12.15;11.05;;;;;;;;;;5034134;28;20199;-74
2022/01/19 14:23:14;;;;;;;15.48;10.15;;;;;;;;;;5038346;28;20706;-73
2022/01/19 14:25:41;;;;;;;10.00;8.30;;;;;;;;;;5043019;28;20199;-74
2022/01/19 14:28:14;;;;;;;13.95;10.10;;;;;;;;;;5049470;28;20207;-74
2022/01/19 14:30:41;;;;;;;12.15;9.50;;;;;;;;;;5035448;28;20218;-74
2022/01/19 14:33:12;;;;;;;11.82;10.63;;;;;;;;;;5044047;28;20198;-73
2022/01/19 14:35:40;;;;;;;11.60;9.63;;;;;;;;;;5050423;28;20278;-73
2022/01/19 14:38:12;;;;;;;10.50;9.23;;;;;;;;;;5052041;28;20203;-73
2022/01/19 14:40:50;;;;;;;13.40;11.07;;;;;;;;;;5043520;28;20199;-76
2022/01/19 14:43:18;;;;;;;15.57;11.00;;;;;;;;;;5044598;28;20218;-73
2022/01/19 14:45:52;;;;;;;12.93;11.20;;;;;;;;;;5052768;28;20630;-74
2022/01/19 14:48:21;;;;;;;10.52;9.07;;;;;;;;;;5049042;28;20229;-73
2022/01/19 14:50:49;;;;;;;11.27;9.52;;;;;;;;;;5049238;28;20571;-76
2022/01/19 14:53:16;;;;;;;11.70;10.48;;;;;;;;;;5049878;28;20191;-73
2022/01/19 14:55:44;;;;;;;9.82;8.80;;;;;;;;;;5034305;28;20764;-73
2022/01/19 14:58:11;;;;;;;13.07;9.40;;;;;;;;;;5051941;28;20210;-73
2022/01/19 15:00:39;;;;;;;10.98;9.88;;;;;;;;;;5045290;28;20218;-74
2022/01/19 15:03:06;;;;;;;12.52;9.75;;;;;;;;;;5047261;28;20289;-73
2022/01/19 15:05:36;;;;;;;11.93;8.82;;;;;;;;;;5043603;28;20211;-72
2022/01/19 15:08:04;;;;;;;9.40;8.40;;;;;;;;;;5037532;28;20257;-73
2022/01/19 15:10:32;;;;;;;11.95;10.57;;;;;;;;;;5032138;28;20682;-74
2022/01/19 15:12:59;;;;;;;11.63;10.43;;;;;;;;;;5046406;28;20202;-73
2022/01/19 15:15:27;;;;;;;11.23;10.07;;;;;;;;;;5040994;28;20207;-73
2022/01/19 15:17:54;;;;;;;12.07;9.98;;;;;;;;;;5035236;28;20609;-76
2022/01/19 15:20:22;;;;;;;10.40;9.00;;;;;;;;;;5045008;28;20217;-74
2022/01/19 15:22:51;;;;;;;11.45;9.45;;;;;;;;;;5047442;28;20249;-75
2022/01/19 15:25:18;;;;;;;10.27;9.18;;;;;;;;;;5051867;28;20210;-74
2022/01/19 15:27:46;;;;;;;13.00;10.88;;;;;;;;;;5048987;28;20695;-74
2022/01/19 15:30:13;;;;;;;13.45;9.68;;;;;;;;;;5047781;28;20202;-74
2022/01/19 15:32:40;;;;;;;11.38;9.85;;;;;;;;;;5051926;28;20212;-76
2022/01/19 15:35:09;;;;;;;10.20;8.93;;;;;;;;;;5037925;28;20196;-72
2022/01/19 15:37:36;;;;;;;14.02;8.95;;;;;;;;;;5043323;28;20199;-73
2022/01/19 15:40:12;;;;;;;12.85;11.32;;;;;;;;;;5050898;28;20194;-73
2022/01/19 15:42:39;;;;;;;11.82;10.23;;;;;;;;;;5047972;28;20246;-77
2022/01/19 15:45:06;;;;;;;12.30;9.95;;;;;;;;;;5043525;28;20223;-73
2022/01/19 15:47:33;;;;;;;11.32;10.13;;;;;;;;;;5043389;28;20208;-74
2022/01/19 15:50:00;;;;;;;15.07;10.88;;;;;;;;;;5039623;28;20667;-74
2022/01/19 15:52:28;;;;;;;11.43;10.18;;;;;;;;;;5041562;28;20318;-74
2022/01/19 15:54:55;;;;;;;14.43;11.23;;;;;;;;;;5047253;28;20199;-74
2022/01/19 15:57:23;;;;;;;10.07;8.57;;;;;;;;;;5047449;28;20667;-73
2022/01/19 15:59:51;;;;;;;17.75;11.00;;;;;;;;;;5041216;28;20733;-72